Time;durP1;ratioP1;P1;durP2;ratioP2;P2;SDS_P1;SDS_P2;PMS_P1;PMS_P2;Temp;Humidity;BMP_temperature;BMP_pressure;BME280_temperature;BME280_humidity;BME280_pressure;Samples;Min_cycle;Max_cycle;Signal;HPM_P1;HPM_P2
2023/05/03 00:00:16;;;;;;;;;;;14.60;76.80;;;14.83;49.33;99492.28;4898785;28;120042;-77
2023/05/03 00:02:43;;;;;;;;;;;14.60;76.80;;;14.80;49.44;99497.38;4902647;28;124064;-79
2023/05/03 00:05:14;;;;;;;;;;;14.50;76.90;;;14.77;49.85;99497.16;4909794;28;123930;-77
2023/05/03 00:07:42;;;;;;;;;;;14.50;77.30;;;14.75;49.79;99505.03;4908534;28;119409;-81
2023/05/03 00:10:11;;;;;;;;;;;14.50;77.30;;;14.73;49.90;99497.00;4908058;28;119142;-76
2023/05/03 00:12:39;;;;;;;;;;;14.50;77.50;;;14.71;49.90;99499.28;4910850;28;123974;-80
2023/05/03 00:15:06;;;;;;;;;;;13.80;76.90;;;14.71;49.99;99498.47;4895636;28;124016;-78
2023/05/03 00:17:37;;;;;;;;;;;14.50;77.80;;;14.70;50.00;99496.84;4911074;28;120946;-80
2023/05/03 00:20:04;;;;;;;;;;;14.50;77.90;;;14.70;49.93;99496.84;4911853;28;118272;-80
2023/05/03 00:22:31;;;;;;;;;;;14.50;78.00;;;14.70;50.06;99502.41;4912064;28;124137;-81
2023/05/03 00:25:04;;;;;;;;;;;14.40;78.30;;;14.70;50.05;99502.41;4904882;28;123094;-81
2023/05/03 00:27:30;;;;;;;;;;;14.40;78.30;;;14.68;50.18;99499.94;4909126;28;118996;-80
2023/05/03 00:30:04;;;;;;;;;;;14.40;78.50;;;14.68;50.30;99496.34;4907656;28;118736;-77
2023/05/03 00:32:30;;;;;;;;;;;14.40;78.50;;;14.63;50.23;99502.06;4907537;28;123966;-81
2023/05/03 00:34:57;;;;;;;;;;;14.40;78.60;;;14.57;50.32;99496.63;4906850;28;124145;-79
2023/05/03 00:37:31;;;;;;;;;;;14.30;78.60;;;14.54;50.63;99496.47;4908829;28;119525;-79
2023/05/03 00:39:57;;;;;;;;;;;14.30;78.90;;;14.50;50.71;99499.00;4910342;28;117885;-80
2023/05/03 00:42:26;;;;;;;;;;;14.30;79.00;;;14.47;50.75;99501.63;4902406;28;124693;-82
2023/05/03 00:44:54;;;;;;;;;;;12.70;78.20;;;14.43;50.88;99495.91;4901116;28;123952;-79
2023/05/03 00:47:21;;;;;;;;;;;14.20;79.20;;;14.41;50.86;99498.19;4904422;28;120505;-77
2023/05/03 00:49:50;;;;;;;;;;;14.20;79.30;;;14.40;51.08;99488.22;4893087;28;119646;-81
2023/05/03 00:52:17;;;;;;;;;;;14.20;79.50;;;14.37;51.05;99483.25;4907826;28;124247;-80
2023/05/03 00:54:45;;;;;;;;;;;14.20;79.70;;;14.35;51.12;99482.78;4894207;28;123749;-80
2023/05/03 00:57:15;;;;;;;;;;;14.10;79.80;;;14.34;50.94;99481.13;4906599;28;120304;-81
2023/05/03 00:59:41;;;;;;;;;;;14.10;79.90;;;14.35;51.11;99474.44;4907719;28;118729;-81
2023/05/03 01:02:07;;;;;;;;;;;14.10;80.20;;;14.34;51.20;99483.91;4898584;28;124610;-79
2023/05/03 01:04:35;;;;;;;;;;;14.10;80.30;;;14.33;51.35;99487.84;4907338;28;123820;-78
2023/05/03 01:07:20;;;;;;;;;;;14.10;80.40;;;14.31;51.28;99484.56;4899746;28;119239;-77
2023/05/03 01:09:55;;;;;;;;;;;14.00;80.50;;;14.27;51.31;99478.81;4905227;28;119325;-81
2023/05/03 01:12:27;;;;;;;;;;;14.00;81.20;;;14.21;51.41;99482.91;4908090;28;124064;-81
2023/05/03 01:15:07;;;;;;;;;;;13.00;79.70;;;14.17;51.45;99486.63;4909253;28;123112;-79
2023/05/03 01:17:47;;;;;;;;;;;12.70;79.60;;;14.14;51.68;99488.06;4892454;28;119688;-79
2023/05/03 01:20:23;;;;;;;;;;;13.90;80.80;;;14.13;51.60;99484.50;4906896;28;118599;-82
2023/05/03 01:22:59;;;;;;;;;;;13.90;81.10;;;14.12;51.61;99482.84;4893198;28;124122;-80
2023/05/03 01:25:27;;;;;;;;;;;13.90;81.20;;;14.11;51.65;99481.19;4906703;28;123889;-81
2023/05/03 01:27:53;;;;;;;;;;;13.90;81.30;;;14.10;51.68;99475.94;4907416;28;120168;-83
2023/05/03 01:30:29;;;;;;;;;;;13.80;81.30;;;14.07;51.86;99469.06;4905839;28;118753;-80
2023/05/03 01:33:28;;;;;;;;;;;13.80;81.40;;;14.05;51.97;99464.97;4891949;28;123536;-78
2023/05/03 01:36:03;;;;;;;;;;;13.80;81.50;;;14.05;52.00;99467.75;4914321;28;123247;-81
2023/05/03 01:38:32;;;;;;;;;;;13.80;81.60;;;14.06;51.99;99466.63;4908338;28;119353;-81
2023/05/03 01:41:08;;;;;;;;;;;13.80;81.70;;;14.06;51.98;99461.06;4905247;28;119919;-81
2023/05/03 01:43:35;;;;;;;;;;;13.80;81.90;;;14.04;52.02;99458.59;4903159;28;124377;-77
2023/05/03 01:46:04;;;;;;;;;;;13.80;82.00;;;14.02;52.13;99465.63;4905846;28;123929;-80
2023/05/03 01:48:30;;;;;;;;;;;13.80;82.10;;;13.96;52.13;99476.03;4905998;28;119391;-81
2023/05/03 01:51:03;;;;;;;;;;;13.70;82.10;;;13.88;52.26;99462.94;4907159;28;118658;-76
2023/05/03 01:53:30;;;;;;;;;;;13.70;82.20;;;13.80;52.44;99464.50;4891034;28;123868;-79
2023/05/03 01:55:56;;;;;;;;;;;13.60;82.20;;;13.76;52.44;99463.53;4908863;28;123408;-84
2023/05/03 01:58:22;;;;;;;;;;;13.50;82.30;;;13.69;52.72;99458.41;4903006;28;119433;-80
2023/05/03 02:01:05;;;;;;;;;;;13.50;82.60;;;13.65;52.78;99457.41;4891236;28;118429;-80
2023/05/03 02:03:31;;;;;;;;;;;13.50;82.80;;;13.64;52.85;99457.72;4908730;28;124154;-77
2023/05/03 02:05:58;;;;;;;;;;;13.40;82.90;;;13.64;52.84;99460.50;4909157;28;124065;-78
2023/05/03 02:08:28;;;;;;;;;;;13.40;83.10;;;13.65;52.90;99459.38;4903180;28;119552;-76
2023/05/03 02:10:54;;;;;;;;;;;13.40;83.20;;;13.64;52.96;99458.53;4908316;28;119600;-80
2023/05/03 02:13:20;;;;;;;;;;;13.40;83.30;;;13.66;53.08;99469.34;4910180;28;124349;-81
2023/05/03 02:15:47;;;;;;;;;;;13.40;83.40;;;13.66;52.81;99466.56;4912095;28;123531;-79
2023/05/03 02:18:17;;;;;;;;;;;13.40;83.50;;;13.65;52.95;99462.97;4908645;28;118857;-76
2023/05/03 02:20:45;;;;;;;;;;;13.40;83.70;;;13.61;52.80;99461.94;4904714;28;119289;-78
2023/05/03 02:23:11;;;;;;;;;;;13.40;83.70;;;13.58;53.23;99459.00;4901646;28;124605;-79
2023/05/03 02:25:40;;;;;;;;;;;13.30;83.70;;;13.56;53.22;99464.84;4890464;28;123633;-78
2023/05/03 02:28:07;;;;;;;;;;;13.30;83.90;;;13.52;53.41;99461.06;4902435;28;120535;-78
2023/05/03 02:30:33;;;;;;;;;;;13.30;84.00;;;13.50;53.43;99460.56;4903856;28;119624;-78
2023/05/03 02:33:00;;;;;;;;;;;13.20;84.00;;;13.48;53.44;99455.31;4909328;28;124376;-77
2023/05/03 02:35:29;;;;;;;;;;;13.20;84.10;;;13.43;53.37;99461.03;4903975;28;123852;-79
2023/05/03 02:37:56;;;;;;;;;;;13.20;84.30;;;13.38;53.51;99457.53;4901201;28;119901;-80
2023/05/03 02:40:22;;;;;;;;;;;13.10;84.30;;;13.33;53.70;99460.44;4904292;28;118688;-80
2023/05/03 02:42:48;;;;;;;;;;;13.10;84.50;;;13.29;53.67;99462.19;4905382;28;124116;-77
2023/05/03 02:45:17;;;;;;;;;;;13.00;84.50;;;13.24;53.69;99469.50;4905722;28;123800;-77
2023/05/03 02:47:43;;;;;;;;;;;13.10;84.80;;;13.19;53.85;99455.75;4905737;28;119390;-78
2023/05/03 02:50:10;;;;;;;;;;;13.00;84.70;;;13.13;54.01;99461.69;4898653;28;119077;-81
2023/05/03 02:52:36;;;;;;;;;;;12.90;84.80;;;13.10;53.98;99463.16;4904044;28;124391;-79
2023/05/03 02:55:08;;;;;;;;;;;12.90;85.00;;;13.06;54.03;99456.59;4900433;28;124063;-76
2023/05/03 02:57:34;;;;;;;;;;;12.90;85.10;;;13.04;54.22;99458.84;4904084;28;119219;-77
2023/05/03 03:00:01;;;;;;;;;;;12.80;85.10;;;13.02;54.25;99450.03;4892130;28;117967;-78
2023/05/03 03:02:30;;;;;;;;;;;12.80;85.30;;;13.03;54.32;99457.22;4905308;28;124131;-78
2023/05/03 03:04:57;;;;;;;;;;;12.80;85.50;;;13.02;54.39;99461.94;4889031;28;122728;-76
2023/05/03 03:07:23;;;;;;;;;;;12.80;85.70;;;13.00;54.41;99460.59;4908158;28;118527;-79
2023/05/03 03:09:58;;;;;;;;;;;12.80;85.80;;;12.98;54.26;99460.13;4905492;28;118711;-78
2023/05/03 03:12:31;;;;;;;;;;;12.70;85.70;;;12.94;54.61;99461.84;4905712;28;124477;-76
2023/05/03 03:14:57;;;;;;;;;;;12.70;85.80;;;12.91;54.64;99454.97;4888684;28;123476;-78
2023/05/03 03:17:23;;;;;;;;;;;12.70;86.00;;;12.88;54.60;99460.34;4914277;28;120472;-77
2023/05/03 03:20:00;;;;;;;;;;;12.60;86.10;;;12.83;54.74;99462.09;4904794;28;120120;-76
2023/05/03 03:22:29;;;;;;;;;;;12.60;86.20;;;12.79;54.91;99466.63;4902050;28;124306;-78
2023/05/03 03:24:55;;;;;;;;;;;12.60;86.40;;;12.74;55.00;99461.19;4908427;28;124569;-77
2023/05/03 03:27:22;;;;;;;;;;;12.50;86.50;;;12.72;54.83;99466.22;4906435;28;119629;-80
2023/05/03 03:29:49;;;;;;;;;;;12.50;86.60;;;12.69;54.89;99468.78;4904014;28;118974;-77
2023/05/03 03:32:17;;;;;;;;;;;12.50;86.80;;;12.64;55.13;99461.41;4905324;28;124199;-75
2023/05/03 03:34:43;;;;;;;;;;;12.40;86.90;;;12.60;55.51;99465.94;4908815;28;124286;-77
2023/05/03 03:37:12;;;;;;;;;;;12.40;87.10;;;12.56;55.36;99465.72;4912059;28;118919;-76
2023/05/03 03:39:41;;;;;;;;;;;12.40;87.30;;;12.55;55.50;99469.63;4907349;28;118724;-76
2023/05/03 03:42:10;;;;;;;;;;;12.30;87.40;;;12.51;55.51;99465.00;4909378;28;124758;-77
2023/05/03 03:44:36;;;;;;;;;;;12.30;87.50;;;12.47;55.72;99475.09;4894073;28;124040;-75
2023/05/03 03:47:05;;;;;;;;;;;12.30;87.70;;;12.42;55.79;99486.28;4899571;28;119419;-75
2023/05/03 03:49:35;;;;;;;;;;;12.20;88.00;;;12.36;55.81;99480.00;4906949;28;118966;-76
2023/05/03 03:52:01;;;;;;;;;;;12.20;88.00;;;12.31;56.10;99486.47;4907249;28;124746;-75
2023/05/03 03:54:33;;;;;;;;;;;12.10;88.10;;;12.30;56.14;99484.00;4896339;28;123961;-76
2023/05/03 03:57:01;;;;;;;;;;;12.10;88.20;;;12.28;56.05;99492.63;4908717;28;119637;-79
2023/05/03 03:59:29;;;;;;;;;;;12.10;88.40;;;12.26;56.46;99491.28;4908240;28;118795;-75
2023/05/03 04:01:56;;;;;;;;;;;12.00;88.40;;;12.24;56.21;99490.75;4899229;28;124283;-75
2023/05/03 04:04:22;;;;;;;;;;;12.10;88.60;;;12.20;56.06;99484.19;4904820;28;124787;-76
2023/05/03 04:06:53;;;;;;;;;;;12.00;88.60;;;12.17;56.37;99491.19;4904480;28;120240;-77
2023/05/03 04:09:20;;;;;;;;;;;12.00;88.60;;;12.14;56.17;99492.63;4891619;28;119923;-76
2023/05/03 04:11:46;;;;;;;;;;;12.00;88.70;;;12.13;56.30;99492.91;4909353;28;123408;-76
2023/05/03 04:14:12;;;;;;;;;;;11.90;88.80;;;12.13;56.32;99495.69;4893429;28;123296;-76
2023/05/03 04:16:43;;;;;;;;;;;11.90;88.90;;;12.14;56.68;99497.31;4905156;28;119452;-75
2023/05/03 04:19:12;;;;;;;;;;;11.90;89.10;;;12.15;56.73;99498.97;4909118;28;119003;-75
2023/05/03 04:21:41;;;;;;;;;;;11.90;89.20;;;12.15;56.59;99504.50;4902059;28;124820;-77
2023/05/03 04:24:08;;;;;;;;;;;11.90;89.30;;;12.15;56.08;99513.63;4903217;28;123927;-75
2023/05/03 04:26:34;;;;;;;;;;;11.90;89.40;;;12.15;56.76;99502.56;4907654;28;119500;-75
2023/05/03 04:29:01;;;;;;;;;;;11.90;89.60;;;12.15;56.51;99516.41;4898283;28;118561;-75
2023/05/03 04:31:31;;;;;;;;;;;11.90;89.60;;;12.15;56.32;99521.13;4902498;28;124216;-75
2023/05/03 04:33:57;;;;;;;;;;;11.90;89.70;;;12.14;56.47;99520.31;4902541;28;123960;-76
2023/05/03 04:36:29;;;;;;;;;;;11.90;89.70;;;12.13;56.49;99520.59;4909766;28;118954;-76
2023/05/03 04:38:55;;;;;;;;;;;11.90;89.70;;;12.10;57.10;99527.56;4908242;28;118921;-77
2023/05/03 04:41:24;;;;;;;;;;;11.90;89.80;;;12.10;56.58;99522.03;4904240;28;124366;-75
2023/05/03 04:43:53;;;;;;;;;;;11.90;89.90;;;12.08;56.50;99520.69;4909944;28;122758;-77
2023/05/03 04:46:22;;;;;;;;;;;11.80;89.80;;;12.07;56.92;99521.84;4900229;28;119411;-75
2023/05/03 04:48:53;;;;;;;;;;;11.80;89.90;;;12.05;56.72;99529.63;4919249;28;118026;-77
2023/05/03 04:51:19;;;;;;;;;;;11.90;90.00;;;12.04;56.79;99528.81;4904715;28;124188;-76
2023/05/03 04:53:45;;;;;;;;;;;11.80;90.10;;;12.05;56.90;99529.63;4904101;28;124347;-79
2023/05/03 04:56:11;;;;;;;;;;;11.80;90.10;;;12.08;57.04;99537.31;4902883;28;120216;-79
2023/05/03 04:58:41;;;;;;;;;;;11.80;90.10;;;12.11;56.92;99531.16;4904375;28;119991;-76
2023/05/03 05:01:08;;;;;;;;;;;11.80;90.20;;;12.14;56.98;99527.78;4899392;28;124167;-77
2023/05/03 05:03:34;;;;;;;;;;;11.90;90.40;;;12.13;56.89;99528.91;4901245;28;124101;-76
2023/05/03 05:06:00;;;;;;;;;;;11.80;90.30;;;12.13;57.28;99538.03;4901016;28;120295;-79
2023/05/03 05:08:29;;;;;;;;;;;11.80;90.40;;;12.18;57.17;99531.59;4896667;28;119119;-77
2023/05/03 05:10:55;;;;;;;;;;;11.90;90.50;;;12.26;57.17;99538.38;4903036;28;124191;-80
2023/05/03 05:13:22;;;;;;;;;;;11.90;90.70;;;12.35;57.26;99531.00;4895539;28;123792;-79
2023/05/03 05:15:48;;;;;;;;;;;11.90;90.70;;;12.38;57.38;99531.22;4901066;28;119427;-77
2023/05/03 05:18:17;;;;;;;;;;;12.00;91.00;;;12.43;57.08;99537.78;4908603;28;118598;-79
2023/05/03 05:20:43;;;;;;;;;;;12.00;90.90;;;12.43;57.15;99538.59;4906975;28;124107;-81
2023/05/03 05:23:10;;;;;;;;;;;12.00;90.90;;;12.50;57.20;99536.25;4901520;28;124619;-78
2023/05/03 05:25:36;;;;;;;;;;;12.10;90.90;;;12.53;58.02;99534.81;4899470;28;122425;-78
2023/05/03 05:28:05;;;;;;;;;;;12.10;91.20;;;12.54;57.42;99536.44;4905148;28;118711;-77
2023/05/03 05:30:32;;;;;;;;;;;12.10;91.20;;;12.53;57.20;99540.38;4898379;28;124390;-76
2023/05/03 05:32:58;;;;;;;;;;;12.50;91.30;;;12.53;56.91;99543.13;4903234;28;125398;-77
2023/05/03 05:35:31;;;;;;;;;;;12.10;91.00;;;12.54;56.93;99536.44;4908349;28;119432;-76
2023/05/03 05:38:00;;;;;;;;;;;12.20;91.00;;;12.52;57.29;99541.47;4907394;28;118574;-81
2023/05/03 05:40:32;;;;;;;;;;;12.10;91.10;;;12.47;57.21;99539.66;4905799;28;124860;-80
2023/05/03 05:42:58;;;;;;;;;;;12.10;91.00;;;12.51;56.95;99542.63;4904080;28;125487;-79
2023/05/03 05:45:30;;;;;;;;;;;12.10;90.90;;;12.56;56.95;99536.97;4890814;28;120397;-76
2023/05/03 05:47:58;;;;;;;;;;;12.10;91.10;;;12.51;56.99;99537.06;4912965;28;119715;-78
2023/05/03 05:50:28;;;;;;;;;;;12.10;91.10;;;12.47;57.02;99538.81;4904688;28;124342;-76
2023/05/03 05:52:54;;;;;;;;;;;12.10;91.10;;;12.51;57.14;99539.84;4907465;28;124126;-77
2023/05/03 05:55:21;;;;;;;;;;;12.10;91.10;;;12.56;57.00;99536.97;4896069;28;120147;-76
2023/05/03 05:57:47;;;;;;;;;;;12.10;91.20;;;12.57;57.22;99535.84;4897172;28;118933;-77
2023/05/03 06:00:17;;;;;;;;;;;12.10;91.20;;;12.54;57.22;99534.50;4907972;28;124538;-78
2023/05/03 06:02:46;;;;;;;;;;;12.00;91.30;;;12.56;56.92;99536.97;4906518;28;124093;-78
2023/05/03 06:05:16;;;;;;;;;;;12.00;91.30;;;12.60;57.22;99538.00;4893891;28;119344;-80
2023/05/03 06:07:45;;;;;;;;;;;12.10;91.30;;;12.67;57.71;99527.31;4906891;28;119182;-78
2023/05/03 06:10:11;;;;;;;;;;;12.20;91.70;;;12.69;57.43;99536.16;4906246;28;124188;-78
2023/05/03 06:12:40;;;;;;;;;;;12.20;91.70;;;12.75;57.46;99528.53;4892891;28;124061;-76
2023/05/03 06:15:07;;;;;;;;;;;12.20;91.60;;;12.77;57.21;99531.84;4899708;28;119410;-77
2023/05/03 06:17:36;;;;;;;;;;;12.30;91.60;;;12.79;57.45;99529.59;4906923;28;118695;-77
2023/05/03 06:20:10;;;;;;;;;;;12.30;91.70;;;12.86;57.14;99523.59;4905823;28;124587;-80
2023/05/03 06:22:40;;;;;;;;;;;12.30;91.60;;;12.96;56.88;99529.75;4893902;28;124529;-88
2023/05/03 06:25:07;;;;;;;;;;;12.40;91.60;;;13.04;56.97;99526.25;4923917;28;118428;-77
2023/05/03 06:27:33;;;;;;;;;;;12.50;91.70;;;13.16;56.56;99522.94;4907489;28;119422;-79
2023/05/03 06:30:07;;;;;;;;;;;12.60;91.50;;;13.23;56.26;99533.63;4906583;28;125177;-80
2023/05/03 06:32:33;;;;;;;;;;;12.60;91.40;;;13.24;56.29;99530.53;4901357;28;123393;-80
2023/05/03 06:35:08;;;;;;;;;;;12.70;91.30;;;13.32;56.27;99534.53;4907563;28;120334;-79
2023/05/03 06:37:35;;;;;;;;;;;12.80;91.30;;;13.39;56.10;99526.59;4900150;28;119810;-79
2023/05/03 06:40:05;;;;;;;;;;;13.30;91.50;;;13.51;56.17;99534.38;4909903;28;124234;-78
2023/05/03 06:42:31;;;;;;;;;;;12.90;91.30;;;13.61;55.88;99527.75;4909616;28;124503;-76
2023/05/03 06:44:58;;;;;;;;;;;13.00;91.20;;;13.74;55.85;99531.63;4907388;28;119074;-76
2023/05/03 06:47:36;;;;;;;;;;;13.10;91.20;;;13.83;55.02;99529.72;4905767;28;118661;-77
2023/05/03 06:50:07;;;;;;;;;;;13.20;91.00;;;13.91;55.03;99528.97;4909969;28;124084;-76
2023/05/03 06:52:33;;;;;;;;;;;13.30;90.90;;;13.98;55.03;99534.91;4898177;28;124073;-76
2023/05/03 06:55:00;;;;;;;;;;;13.40;90.80;;;14.03;54.61;99532.00;4899935;28;119953;-77
2023/05/03 06:57:29;;;;;;;;;;;13.40;90.70;;;14.02;54.41;99529.50;4905256;28;117820;-76
2023/05/03 06:59:55;;;;;;;;;;;13.40;90.70;;;13.99;54.50;99533.75;4905306;28;124458;-77
2023/05/03 07:02:22;;;;;;;;;;;13.40;90.60;;;14.02;54.49;99527.56;4909632;28;124041;-76
2023/05/03 07:04:48;;;;;;;;;;;13.50;90.60;;;14.02;54.44;99532.28;4910803;28;118316;-78
2023/05/03 07:07:19;;;;;;;;;;;13.50;90.50;;;14.03;54.50;99523.66;4898658;28;119753;-77
2023/05/03 07:09:46;;;;;;;;;;;13.50;90.50;;;14.13;54.42;99526.19;4902638;28;124357;-76
2023/05/03 07:12:18;;;;;;;;;;;13.60;90.50;;;14.21;54.38;99515.41;4918152;28;123341;-77
2023/05/03 07:14:46;;;;;;;;;;;13.70;90.40;;;14.28;54.07;99510.22;4895979;28;119470;-77
2023/05/03 07:17:18;;;;;;;;;;;13.80;90.40;;;14.30;54.02;99510.72;4908757;28;118818;-76
2023/05/03 07:19:45;;;;;;;;;;;13.80;90.30;;;14.33;53.78;99510.09;4904210;28;125202;-76
2023/05/03 07:22:11;;;;;;;;;;;13.80;90.20;;;14.40;54.01;99502.09;4901295;28;124080;-78
2023/05/03 07:24:40;;;;;;;;;;;13.80;90.20;;;14.50;53.71;99501.78;4909015;28;120273;-79
2023/05/03 07:27:11;;;;;;;;;;;13.90;90.20;;;14.61;53.55;99488.44;4909137;28;119552;-78
2023/05/03 07:29:40;;;;;;;;;;;14.00;90.20;;;14.69;53.27;99486.84;4910000;28;123968;-76
2023/05/03 07:32:09;;;;;;;;;;;14.10;90.10;;;14.69;53.12;99484.06;4912330;28;125153;-76
2023/05/03 07:34:35;;;;;;;;;;;14.10;90.10;;;14.67;53.30;99492.75;4911016;28;118656;-76
2023/05/03 07:37:05;;;;;;;;;;;14.10;90.00;;;14.63;53.39;99500.09;4915591;28;118802;-77
2023/05/03 07:39:31;;;;;;;;;;;14.10;90.10;;;14.63;53.33;99497.31;4912092;28;124205;-76
2023/05/03 07:41:57;;;;;;;;;;;14.10;90.10;;;14.72;53.52;99495.38;4895044;28;123709;-77
2023/05/03 07:44:23;;;;;;;;;;;14.10;90.10;;;14.78;53.36;99493.28;4909896;28;118850;-76
2023/05/03 07:46:53;;;;;;;;;;;14.20;90.10;;;14.83;53.26;99492.28;4890172;28;120570;-80
2023/05/03 07:49:19;;;;;;;;;;;14.20;90.00;;;14.91;53.15;99491.47;4889525;28;124328;-75
2023/05/03 07:51:46;;;;;;;;;;;14.30;90.00;;;14.97;53.07;99491.00;4896127;28;124169;-75
2023/05/03 07:54:17;;;;;;;;;;;14.40;90.00;;;15.10;52.91;99478.09;4908093;28;120086;-76
2023/05/03 07:56:44;;;;;;;;;;;14.70;90.10;;;15.23;52.64;99473.50;4892426;28;117895;-77
2023/05/03 07:59:10;;;;;;;;;;;14.60;89.90;;;15.32;52.23;99479.09;4900879;28;124193;-76
2023/05/03 08:01:37;;;;;;;;;;;14.60;89.60;;;15.40;52.33;99476.31;4895835;28;123859;-77
2023/05/03 08:04:08;;;;;;;;;;;14.70;89.80;;;15.52;52.22;99483.16;4900416;28;119641;-75
2023/05/03 08:06:37;;;;;;;;;;;14.80;89.70;;;15.59;51.74;99478.75;4905502;28;118052;-77
2023/05/03 08:09:05;;;;;;;;;;;14.90;89.00;;;15.61;51.63;99476.47;4901372;28;123587;-76
2023/05/03 08:11:31;;;;;;;;;;;15.00;88.90;;;15.61;51.86;99473.69;4905181;28;124057;-78
2023/05/03 08:13:57;;;;;;;;;;;15.00;88.70;;;15.63;51.56;99478.91;4889579;28;120553;-78
2023/05/03 08:16:32;;;;;;;;;;;15.10;88.40;;;15.70;51.69;99473.69;4879998;28;118811;-78
2023/05/03 08:19:06;;;;;;;;;;;15.10;88.50;;;15.79;51.39;99479.25;4907422;28;127202;-76
2023/05/03 08:21:34;;;;;;;;;;;15.20;88.20;;;15.80;51.04;99473.34;4903209;28;124199;-78
2023/05/03 08:24:07;;;;;;;;;;;15.20;88.10;;;15.80;51.08;99476.13;4901621;28;119526;-77
2023/05/03 08:26:40;;;;;;;;;;;15.10;88.00;;;15.82;50.99;99478.56;4908062;28;119352;-76
2023/05/03 08:29:07;;;;;;;;;;;15.20;88.00;;;15.84;51.20;99470.72;4907057;28;124257;-77
2023/05/03 08:31:34;;;;;;;;;;;15.30;88.00;;;15.88;50.76;99475.28;4907508;28;123998;-75
2023/05/03 08:34:05;;;;;;;;;;;15.30;87.70;;;15.94;50.93;99477.91;4906199;28;121154;-75
2023/05/03 08:36:33;;;;;;;;;;;15.40;87.70;;;15.99;50.81;99481.34;4906131;28;118646;-76
2023/05/03 08:39:06;;;;;;;;;;;15.40;87.40;;;16.05;50.61;99480.00;4898577;28;123897;-75
2023/05/03 08:41:34;;;;;;;;;;;15.50;87.50;;;16.07;50.54;99483.28;4897128;28;123926;-78
2023/05/03 08:44:05;;;;;;;;;;;15.50;87.20;;;16.08;50.42;99473.75;4903513;28;119554;-79
2023/05/03 08:46:35;;;;;;;;;;;15.50;87.20;;;16.11;50.49;99475.06;4900895;28;119007;-78
2023/05/03 08:49:06;;;;;;;;;;;15.50;87.30;;;16.19;50.36;99473.41;4907737;28;123792;-77
2023/05/03 08:51:33;;;;;;;;;;;15.60;87.30;;;16.25;50.59;99475.66;4903048;28;124092;-76
2023/05/03 08:54:03;;;;;;;;;;;15.70;87.10;;;16.33;50.56;99474.00;4889618;28;118392;-76
2023/05/03 08:56:33;;;;;;;;;;;15.80;87.20;;;16.41;50.17;99475.94;4902747;28;118876;-76
2023/05/03 08:59:07;;;;;;;;;;;15.90;87.00;;;16.43;50.05;99473.63;4888946;28;124236;-78
2023/05/03 09:01:40;;;;;;;;;;;15.90;86.70;;;16.43;50.25;99476.41;4890492;28;123263;-76
2023/05/03 09:04:14;;;;;;;;;;;15.00;85.80;;;16.46;50.24;99474.94;4892444;28;119592;-76
2023/05/03 09:06:41;;;;;;;;;;;15.90;86.60;;;16.49;50.22;99477.03;4901337;28;119523;-77
2023/05/03 09:09:08;;;;;;;;;;;16.00;86.60;;;16.46;49.88;99484.09;4906959;28;124221;-76
2023/05/03 09:11:39;;;;;;;;;;;16.00;86.00;;;16.47;49.76;99484.91;4898446;28;124155;-77
2023/05/03 09:14:16;;;;;;;;;;;16.00;86.10;;;16.49;49.89;99480.66;4888792;28;119544;-79
2023/05/03 09:16:51;;;;;;;;;;;16.00;86.20;;;16.57;49.83;99482.56;4878954;28;117154;-78
2023/05/03 09:19:18;;;;;;;;;;;16.10;86.30;;;16.65;49.63;99483.69;4888229;28;124029;-78
2023/05/03 09:21:54;;;;;;;;;;;16.10;86.10;;;16.75;49.47;99486.09;4907956;28;124752;-77
2023/05/03 09:24:28;;;;;;;;;;;16.20;86.20;;;16.84;49.51;99469.31;4897537;28;119441;-76
2023/05/03 09:26:57;;;;;;;;;;;16.30;86.10;;;16.87;49.37;99471.47;4892091;28;119686;-79
2023/05/03 09:29:30;;;;;;;;;;;16.40;85.90;;;16.87;49.45;99465.03;4892393;28;124767;-77
2023/05/03 09:32:07;;;;;;;;;;;16.40;85.90;;;16.91;49.56;99477.19;4906581;28;124172;-76
2023/05/03 09:34:40;;;;;;;;;;;16.40;86.10;;;16.94;49.56;99465.34;4905807;28;119860;-76
2023/05/03 09:37:07;;;;;;;;;;;16.40;86.10;;;16.99;49.77;99468.75;4908275;28;119154;-78
2023/05/03 09:39:35;;;;;;;;;;;16.50;86.20;;;17.10;49.68;99471.94;4897092;28;123552;-80
2023/05/03 09:42:16;;;;;;;;;;;16.60;86.10;;;17.14;49.26;99449.75;4908525;28;123111;-77
2023/05/03 09:44:43;;;;;;;;;;;16.60;85.80;;;17.12;49.35;99463.25;4889129;28;119303;-78
2023/05/03 09:47:18;;;;;;;;;;;16.70;85.60;;;17.10;49.45;99463.56;4899141;28;119260;-78
2023/05/03 09:49:45;;;;;;;;;;;16.70;85.70;;;17.14;49.01;99463.69;4904886;28;123390;-76
2023/05/03 09:52:14;;;;;;;;;;;16.70;85.30;;;17.19;48.90;99461.56;4896585;28;123946;-77
2023/05/03 09:54:41;;;;;;;;;;;16.70;85.20;;;17.28;48.88;99457.88;4890136;28;120927;-78
2023/05/03 09:57:07;;;;;;;;;;;16.80;85.40;;;17.35;48.77;99458.13;4895130;28;119546;-78
2023/05/03 09:59:41;;;;;;;;;;;16.80;85.30;;;17.37;48.70;99458.59;4905384;28;123929;-76
2023/05/03 10:02:07;;;;;;;;;;;16.80;85.10;;;17.43;48.57;99454.44;4900792;28;124019;-78
2023/05/03 10:04:55;;;;;;;;;;;16.90;85.10;;;17.47;48.67;99449.81;4906201;28;119689;-77
2023/05/03 10:07:26;;;;;;;;;;;17.00;85.00;;;17.55;48.24;99454.50;4893209;28;118961;-79
2023/05/03 10:09:55;;;;;;;;;;;17.00;84.60;;;17.59;48.25;99451.81;4905942;28;124835;-77
2023/05/03 10:12:22;;;;;;;;;;;17.00;84.50;;;17.62;48.15;99451.13;4893580;28;124002;-78
2023/05/03 10:14:52;;;;;;;;;;;17.10;84.40;;;17.65;47.68;99456.03;4908551;28;118743;-77
2023/05/03 10:17:26;;;;;;;;;;;17.10;83.80;;;17.73;47.80;99452.38;4898840;28;118519;-78
2023/05/03 10:20:26;;;;;;;;;;;17.20;84.20;;;17.81;47.69;99445.91;4906099;28;124049;-77
2023/05/03 10:23:05;;;;;;;;;;;17.30;84.00;;;17.87;47.09;99446.50;4905097;28;125053;-76
2023/05/03 10:25:33;;;;;;;;;;;17.30;83.20;;;17.90;46.91;99443.00;4906257;28;119506;-78
2023/05/03 10:28:07;;;;;;;;;;;17.40;82.80;;;17.96;46.76;99443.59;4892927;28;118929;-77
2023/05/03 10:30:41;;;;;;;;;;;17.50;82.60;;;18.04;46.57;99442.69;4895942;28;124153;-77
2023/05/03 10:33:16;;;;;;;;;;;17.50;82.20;;;18.12;46.19;99443.75;4907592;28;122919;-76
2023/05/03 10:35:51;;;;;;;;;;;17.50;82.00;;;18.21;45.82;99438.84;4905884;28;119396;-77
2023/05/03 10:38:22;;;;;;;;;;;17.70;81.50;;;18.27;45.46;99438.28;4908286;28;97099;-76
2023/05/03 10:40:53;;;;;;;;;;;17.70;80.90;;;18.35;44.99;99425.34;4891763;28;123812;-76
2023/05/03 10:43:32;;;;;;;;;;;17.80;80.40;;;18.42;45.09;99419.16;4909061;28;124540;-79
2023/05/03 10:46:05;;;;;;;;;;;17.80;80.40;;;18.51;44.49;99420.69;4905111;28;120901;-76
2023/05/03 10:48:32;;;;;;;;;;;18.00;79.80;;;18.61;44.89;99421.38;4891862;28;118825;-76
2023/05/03 10:51:35;;;;;;;;;;;18.00;79.90;;;18.73;44.21;99433.38;4904622;28;125421;-77
2023/05/03 10:57:36;;;;;;;;;;;18.20;79.30;;;18.89;44.09;99408.31;4910196;28;120177;-78
2023/05/03 11:00:28;;;;;;;;;;;18.30;78.90;;;18.98;43.68;99414.59;4915622;28;119655;-75
2023/05/03 11:03:25;;;;;;;;;;;18.40;78.70;;;19.06;42.71;99417.59;4903894;28;124975;-79
2023/05/03 11:05:52;;;;;;;;;;;18.40;77.30;;;19.03;42.49;99410.72;4912366;28;124144;-77
2023/05/03 11:08:24;;;;;;;;;;;18.50;76.30;;;19.03;42.50;99405.13;4913809;28;119226;-76
2023/05/03 11:10:59;;;;;;;;;;;18.60;76.20;;;19.09;42.63;99408.50;4914159;28;118971;-77
2023/05/03 11:13:28;;;;;;;;;;;18.60;76.40;;;19.18;42.52;99409.16;4913609;28;124906;-80
2023/05/03 11:15:57;;;;;;;;;;;18.60;76.30;;;19.26;41.98;99396.97;4914334;28;124029;-76
2023/05/03 11:18:26;;;;;;;;;;;18.70;75.60;;;19.30;41.71;99383.91;4901369;28;119551;-75
2023/05/03 11:20:52;;;;;;;;;;;18.70;75.10;;;19.38;41.53;99380.13;4913421;28;118769;-76
2023/05/03 11:23:37;;;;;;;;;;;18.80;74.50;;;19.47;41.01;99381.97;4893446;28;124239;-76